Portada
METAR-TAF:

METAR-TAF

Aeroports :

San Juan de Pasto, Colòmbia

latitud: 01-25N, longitud: 077-16W, altitud: 1826 m

Observació

L'informe es va fer fa 3 hores i 25 minuts, a les 23:00 UTC
Vent 4 kt del Sud-Oest, variant entre Sud i Oest
Temperatura 19°C
Humitat 83%
Pressió 1018 hPa
Visibilitat 10 km o més
Núvols disperses a una alçada de 1500 ft

METAR: SKPS 202300Z 22004KT 180V260 9999 SCT015 19/16 Q1018

Hora: 21:25 (02:25 UTC)


TAF: manca

Observacions i pronòstics meteorològics de més de 4000 aeroports (METAR i TAF).

Les estacions disponibles són els punts grocs i vermells al mapa.

Posi el ratolí al punt desitjat per veure el nom de l'estació.

Feu clic per veure les observacions i els pronòstics meteorològics.

Per canviar el mapa: feu clic els botons verds amb una creu de color negre per apropar; al botó verd amb un guió per allunyar la imatge; o en les fletxes verdes per a mapes adjacents.


METAR-TAF: